Wetterdaten: Woche 10.09.01 - 16.09.01 (KW37)
Datum Zeit Temperatur Luftfeuchte Luftdruck Regenmenge Wind Richtung Taupunkt Windchill
10.09.2001 00:00 7.0 C 87 % 1006.2 hPa 0.0 l/m 1.0 km/h (0 Bft) W-NW 5.0 C 7.0 C
10.09.2001 01:00 5.9 C 92 % 1005.7 hPa 0.0 l/m 2.5 km/h (1 Bft) O-SO 4.7 C 5.7 C
10.09.2001 02:00 6.2 C 93 % 1005.7 hPa 0.0 l/m 3.7 km/h (1 Bft) O-SO 5.1 C 5.6 C
10.09.2001 03:00 7.5 C 86 % 1005.8 hPa 0.0 l/m 0.8 km/h (0 Bft) W 5.3 C 7.5 C
10.09.2001 04:00 7.9 C 83 % 1005.7 hPa 0.0 l/m 8.9 km/h (2 Bft) W-NW 5.1 C 6.4 C
10.09.2001 05:00 7.7 C 83 % 1006.0 hPa 0.0 l/m 7.2 km/h (2 Bft) W-NW 5.1 C 6.6 C
10.09.2001 06:00 7.6 C 86 % 1006.6 hPa 0.0 l/m 6.8 km/h (2 Bft) W-NW 5.4 C 6.5 C
10.09.2001 07:00 8.0 C 84 % 1006.7 hPa 0.0 l/m 6.4 km/h (2 Bft) W-NW 5.4 C 7.1 C
10.09.2001 08:00 8.2 C 83 % 1006.7 hPa 0.0 l/m 9.5 km/h (2 Bft) W-NW 5.5 C 6.7 C
10.09.2001 09:00 8.8 C 80 % 1007.2 hPa 0.0 l/m 16.8 km/h (3 Bft) W-NW 5.5 C 6.4 C
10.09.2001 10:00 9.3 C 80 % 1007.8 hPa 0.6 l/m 17.0 km/h (3 Bft) W-NW 5.9 C 6.9 C
10.09.2001 11:00 9.8 C 77 % 1007.8 hPa 0.0 l/m 23.1 km/h (4 Bft) W-NW 5.9 C 7.2 C
10.09.2001 12:00 10.8 C 71 % 1007.8 hPa 0.0 l/m 22.9 km/h (4 Bft) W-NW 5.7 C 10.8 C
10.09.2001 13:00 12.0 C 64 % 1007.8 hPa 0.0 l/m 22.7 km/h (4 Bft) W-NW 5.4 C 12.0 C
10.09.2001 14:00 12.8 C 59 % 1007.8 hPa 0.0 l/m 30.5 km/h (5 Bft) W-NW 4.9 C 12.8 C
10.09.2001 15:00 13.0 C 59 % 1007.8 hPa 0.0 l/m 30.2 km/h (5 Bft) W-NW 5.1 C 13.0 C
10.09.2001 16:00 11.4 C 70 % 1008.0 hPa 0.0 l/m 20.2 km/h (4 Bft) W-NW 6.1 C 11.4 C
10.09.2001 17:00 11.6 C 67 % 1008.2 hPa 0.0 l/m 19.2 km/h (3 Bft) W-NW 5.7 C 11.6 C
10.09.2001 18:00 11.3 C 68 % 1008.5 hPa 0.0 l/m 14.9 km/h (3 Bft) W-NW 5.7 C 11.3 C
10.09.2001 19:00 10.6 C 73 % 1008.6 hPa 0.0 l/m 15.3 km/h (3 Bft) W-NW 5.9 C 10.3 C
10.09.2001 20:00 9.9 C 78 % 1008.8 hPa 0.0 l/m 2.8 km/h (1 Bft) W 6.3 C 9.7 C
10.09.2001 21:00 9.7 C 77 % 1009.9 hPa 0.0 l/m 4.5 km/h (1 Bft) W-NW 5.8 C 9.2 C
10.09.2001 22:00 9.2 C 76 % 1009.9 hPa 0.0 l/m 7.6 km/h (2 Bft) W 5.3 C 8.2 C
10.09.2001 23:00 8.2 C 83 % 1009.9 hPa 0.0 l/m 1.8 km/h (1 Bft) W-NW 5.4 C 8.0 C
11.09.2001 00:00 8.2 C 84 % 1009.9 hPa 0.0 l/m 0.6 km/h (0 Bft) SO 5.6 C 8.2 C
11.09.2001 01:00 7.5 C 87 % 1009.9 hPa 0.0 l/m 1.5 km/h (1 Bft) W-NW 5.5 C 7.4 C
11.09.2001 02:00 8.1 C 87 % 1009.9 hPa 0.0 l/m 0.5 km/h (0 Bft) O-SO 6.1 C 8.1 C
11.09.2001 03:00 8.3 C 87 % 1009.4 hPa 0.0 l/m 0.4 km/h (0 Bft) S 6.2 C 8.2 C
11.09.2001 04:00 8.0 C 89 % 1009.5 hPa 0.0 l/m 0.6 km/h (0 Bft) O-SO 6.2 C 7.9 C
11.09.2001 05:00 6.9 C 91 % 1008.8 hPa 0.0 l/m 3.0 km/h (1 Bft) SO 5.5 C 6.6 C
11.09.2001 06:00 7.4 C 91 % 1009.2 hPa 0.0 l/m 1.8 km/h (1 Bft) O-SO 6.0 C 7.1 C
11.09.2001 07:00 7.3 C 91 % 1009.9 hPa 0.0 l/m 0.1 km/h (0 Bft) O-SO 6.0 C 7.3 C
11.09.2001 08:00 8.5 C 87 % 1009.9 hPa 0.0 l/m 0.9 km/h (0 Bft) O-SO 6.4 C 8.5 C
11.09.2001 09:00 9.8 C 77 % 1009.9 hPa 0.0 l/m 2.0 km/h (1 Bft) W 6.0 C 9.8 C
11.09.2001 10:00 10.9 C 71 % 1009.9 hPa 0.0 l/m 7.3 km/h (2 Bft) W-NW 6.0 C 10.9 C
11.09.2001 11:00 11.8 C 67 % 1009.9 hPa 0.0 l/m 13.8 km/h (3 Bft) W-NW 5.8 C 11.8 C
11.09.2001 12:00 12.6 C 60 % 1009.9 hPa 0.0 l/m 14.1 km/h (3 Bft) W-NW 4.9 C 12.6 C
11.09.2001 13:00 12.3 C 61 % 1009.9 hPa 0.0 l/m 14.4 km/h (3 Bft) W-NW 5.0 C 12.3 C
11.09.2001 14:00 13.3 C 55 % 1009.9 hPa 0.0 l/m 14.2 km/h (3 Bft) W-NW 4.3 C 13.3 C
11.09.2001 15:00 13.9 C 48 % 1009.3 hPa 0.0 l/m 13.4 km/h (3 Bft) W-NW 3.1 C 13.9 C
11.09.2001 16:00 14.7 C 46 % 1009.4 hPa 0.0 l/m 22.7 km/h (4 Bft) W-NW 3.1 C 14.7 C
11.09.2001 17:00 14.1 C 51 % 1009.8 hPa 0.0 l/m 12.7 km/h (3 Bft) W-NW 4.0 C 14.1 C
11.09.2001 18:00 14.0 C 52 % 1009.8 hPa 0.0 l/m 13.3 km/h (3 Bft) W-NW 4.3 C 14.0 C
11.09.2001 19:00 11.7 C 63 % 1009.9 hPa 0.0 l/m 0.7 km/h (0 Bft) W 4.9 C 11.7 C
11.09.2001 20:00 9.8 C 71 % 1010.1 hPa 0.0 l/m 0.4 km/h (0 Bft) O-SO 4.8 C 9.8 C
11.09.2001 21:00 9.1 C 76 % 1010.9 hPa 0.0 l/m 2.8 km/h (1 Bft) O-SO 5.0 C 8.9 C
11.09.2001 22:00 8.5 C 80 % 1010.9 hPa 0.0 l/m 0.0 km/h (0 Bft) N 5.3 C 8.5 C
11.09.2001 23:00 9.1 C 80 % 1010.9 hPa 0.0 l/m 0.4 km/h (0 Bft) O-NO 5.8 C 9.1 C
12.09.2001 00:00 9.2 C 78 % 1010.9 hPa 0.0 l/m 0.9 km/h (0 Bft) O-SO 5.6 C 9.2 C
12.09.2001 01:00 9.2 C 82 % 1010.9 hPa 0.0 l/m 0.6 km/h (0 Bft) O-SO 6.3 C 9.2 C
12.09.2001 02:00 9.0 C 87 % 1010.9 hPa 0.3 l/m 2.5 km/h (1 Bft) O-SO 6.9 C 8.8 C
12.09.2001 03:00 9.2 C 86 % 1010.3 hPa 0.0 l/m 0.6 km/h (0 Bft) S-SO 7.0 C 9.2 C
12.09.2001 04:00 8.6 C 89 % 1010.0 hPa 0.0 l/m 8.2 km/h (2 Bft) O-SO 6.9 C 7.4 C
12.09.2001 05:00 9.2 C 88 % 1010.4 hPa 0.0 l/m 1.7 km/h (1 Bft) O-SO 7.3 C 9.1 C
12.09.2001 06:00 9.2 C 90 % 1010.4 hPa 0.0 l/m 0.1 km/h (0 Bft) N 7.7 C 9.2 C
12.09.2001 07:00 9.3 C 88 % 1010.9 hPa 0.0 l/m 2.8 km/h (1 Bft) O-SO 7.5 C 9.0 C
12.09.2001 08:00 9.9 C 87 % 1010.9 hPa 0.0 l/m 0.2 km/h (0 Bft) N 7.8 C 9.9 C
12.09.2001 09:00 10.7 C 83 % 1010.9 hPa 0.0 l/m 1.2 km/h (1 Bft) O-SO 8.0 C 10.7 C
12.09.2001 10:00 11.2 C 84 % 1010.9 hPa 0.3 l/m 6.0 km/h (2 Bft) SO 8.6 C 11.2 C
12.09.2001 11:00 11.5 C 86 % 1011.9 hPa 0.3 l/m 1.8 km/h (1 Bft) W 9.3 C 11.5 C
12.09.2001 12:00 11.8 C 86 % 1011.9 hPa 0.0 l/m 7.4 km/h (2 Bft) W 9.5 C 11.8 C
12.09.2001 13:00 12.4 C 82 % 1011.9 hPa 0.0 l/m 10.6 km/h (2 Bft) W-NW 9.4 C 12.4 C
12.09.2001 14:00 13.2 C 79 % 1011.5 hPa 0.0 l/m 12.1 km/h (2 Bft) W-NW 9.5 C 13.2 C
12.09.2001 15:00 13.5 C 78 % 1010.9 hPa 0.0 l/m 6.3 km/h (2 Bft) W-NW 9.7 C 13.5 C
12.09.2001 16:00 14.8 C 73 % 1010.9 hPa 0.0 l/m 10.6 km/h (2 Bft) W-NW 9.9 C 14.8 C
12.09.2001 17:00 14.8 C 71 % 1010.9 hPa 0.0 l/m 7.6 km/h (2 Bft) W-NW 9.7 C 14.8 C
12.09.2001 18:00 13.8 C 76 % 1010.9 hPa 0.0 l/m 2.5 km/h (1 Bft) W-NW 9.6 C 13.8 C
12.09.2001 19:00 13.0 C 81 % 1010.9 hPa 0.0 l/m 0.1 km/h (0 Bft) N 9.7 C 13.0 C
12.09.2001 20:00 12.6 C 83 % 1010.9 hPa 0.0 l/m 2.3 km/h (1 Bft) SO 9.8 C 12.6 C
12.09.2001 21:00 12.3 C 84 % 1010.9 hPa 0.0 l/m 0.8 km/h (0 Bft) W 9.6 C 12.3 C
12.09.2001 22:00 12.1 C 85 % 1010.9 hPa 0.0 l/m 1.4 km/h (1 Bft) W-SW 9.5 C 12.1 C
12.09.2001 23:00 11.1 C 90 % 1010.9 hPa 0.0 l/m 3.2 km/h (1 Bft) O-SO 9.4 C 11.1 C
13.09.2001 00:00 10.4 C 92 % 1010.1 hPa 0.0 l/m 0.7 km/h (0 Bft) O-SO 9.1 C 10.4 C
13.09.2001 01:00 10.0 C 93 % 1009.9 hPa 0.0 l/m 1.2 km/h (1 Bft) O-SO 8.9 C 10.0 C
13.09.2001 02:00 9.3 C 94 % 1009.8 hPa 0.0 l/m 0.6 km/h (0 Bft) O-SO 8.4 C 9.3 C
13.09.2001 03:00 9.4 C 94 % 1008.9 hPa 0.0 l/m 2.3 km/h (1 Bft) O-SO 8.5 C 9.3 C
13.09.2001 04:00 9.3 C 95 % 1008.5 hPa 0.0 l/m 0.1 km/h (0 Bft) N 8.6 C 9.3 C
13.09.2001 05:00 9.3 C 95 % 1007.8 hPa 0.0 l/m 2.2 km/h (1 Bft) O-SO 8.6 C 9.3 C
13.09.2001 06:00 9.4 C 95 % 1006.9 hPa 0.0 l/m 1.2 km/h (1 Bft) O-SO 8.7 C 9.4 C
13.09.2001 07:00 9.4 C 95 % 1006.7 hPa 0.0 l/m 0.3 km/h (0 Bft) O-SO 8.7 C 9.4 C
13.09.2001 08:00 10.4 C 94 % 1006.7 hPa 0.0 l/m 0.2 km/h (0 Bft) SO 9.4 C 10.4 C
13.09.2001 09:00 11.7 C 87 % 1006.1 hPa 0.0 l/m 1.8 km/h (1 Bft) S-SO 9.6 C 11.7 C
13.09.2001 10:00 13.3 C 79 % 1005.7 hPa 0.0 l/m 5.8 km/h (2 Bft) SO 9.7 C 13.3 C
13.09.2001 11:00 15.0 C 72 % 1005.4 hPa 0.0 l/m 6.2 km/h (2 Bft) SO 10.0 C 15.0 C
13.09.2001 12:00 15.4 C 70 % 1004.7 hPa 0.0 l/m 6.0 km/h (2 Bft) SO 9.9 C 15.4 C
13.09.2001 13:00 16.7 C 65 % 1003.6 hPa 0.0 l/m 7.2 km/h (2 Bft) SW 10.1 C 16.7 C
13.09.2001 14:00 18.1 C 59 % 1002.6 hPa 0.0 l/m 7.9 km/h (2 Bft) W-SW 10.0 C 18.1 C
13.09.2001 15:00 18.5 C 55 % 1001.6 hPa 0.0 l/m 9.3 km/h (2 Bft) W-NW 9.1 C 18.5 C
13.09.2001 16:00 19.0 C 51 % 1000.8 hPa 0.0 l/m 11.2 km/h (2 Bft) W-NW 8.6 C 19.0 C
13.09.2001 17:00 18.3 C 53 % 1000.3 hPa 0.0 l/m 10.0 km/h (2 Bft) W-NW 8.7 C 18.3 C
13.09.2001 18:00 17.0 C 59 % 999.5 hPa 0.0 l/m 7.1 km/h (2 Bft) W-NW 8.8 C 17.0 C
13.09.2001 19:00 15.9 C 63 % 998.8 hPa 0.0 l/m 3.5 km/h (1 Bft) W 8.8 C 15.9 C
13.09.2001 20:00 13.7 C 80 % 998.5 hPa 0.6 l/m 0.9 km/h (0 Bft) O-SO 10.2 C 13.7 C
13.09.2001 21:00 12.8 C 89 % 998.5 hPa 0.3 l/m 3.3 km/h (1 Bft) O-SO 11.1 C 12.8 C
13.09.2001 22:00 12.6 C 91 % 998.2 hPa 0.9 l/m 0.0 km/h (0 Bft) N 11.2 C 12.6 C
13.09.2001 23:00 12.3 C 93 % 997.4 hPa 0.3 l/m 0.5 km/h (0 Bft) O-SO 11.2 C 12.3 C
14.09.2001 00:00 12.2 C 94 % 997.0 hPa 2.2 l/m 0.3 km/h (0 Bft) O-SO 11.3 C 12.2 C
14.09.2001 01:00 12.2 C 94 % 996.3 hPa 2.2 l/m 3.3 km/h (1 Bft) O-SO 11.2 C 12.2 C
14.09.2001 02:00 11.3 C 92 % 997.0 hPa 5.3 l/m 23.5 km/h (4 Bft) W-NW 10.0 C 11.3 C
14.09.2001 03:00 10.5 C 92 % 996.4 hPa 1.6 l/m 15.6 km/h (3 Bft) W-NW 9.3 C 10.5 C
14.09.2001 04:00 10.7 C 92 % 996.4 hPa 0.9 l/m 14.6 km/h (3 Bft) NW 9.5 C 10.7 C
14.09.2001 05:00 10.7 C 89 % 996.4 hPa 0.0 l/m 16.2 km/h (3 Bft) W-NW 9.0 C 10.7 C
14.09.2001 06:00 10.2 C 87 % 997.4 hPa 0.0 l/m 20.2 km/h (4 Bft) W-NW 8.2 C 9.9 C
14.09.2001 07:00 10.0 C 88 % 997.7 hPa 0.0 l/m 14.7 km/h (3 Bft) W-NW 8.1 C 8.8 C
14.09.2001 08:00 10.0 C 87 % 998.5 hPa 0.0 l/m 17.3 km/h (3 Bft) W-NW 7.9 C 8.9 C
14.09.2001 09:00 9.9 C 84 % 999.4 hPa 0.0 l/m 16.2 km/h (3 Bft) W-NW 7.3 C 8.0 C
14.09.2001 10:00 10.6 C 80 % 999.5 hPa 0.0 l/m 16.9 km/h (3 Bft) W-NW 7.3 C 10.6 C
14.09.2001 11:00 12.0 C 74 % 999.5 hPa 0.0 l/m 20.1 km/h (4 Bft) W-NW 7.5 C 12.0 C
14.09.2001 12:00 13.7 C 66 % 999.5 hPa 0.0 l/m 19.7 km/h (3 Bft) W-NW 7.4 C 13.7 C
14.09.2001 13:00 14.2 C 63 % 999.5 hPa 0.0 l/m 20.4 km/h (4 Bft) W-NW 7.3 C 14.2 C
14.09.2001 14:00 14.8 C 62 % 999.6 hPa 0.0 l/m 15.4 km/h (3 Bft) W-NW 7.6 C 14.8 C
14.09.2001 15:00 13.2 C 76 % 999.9 hPa 0.6 l/m 11.0 km/h (2 Bft) W-NW 9.0 C 13.2 C
14.09.2001 16:00 14.7 C 65 % 1000.5 hPa 0.0 l/m 14.4 km/h (3 Bft) W-NW 8.2 C 14.7 C
14.09.2001 17:00 14.0 C 63 % 1001.0 hPa 0.0 l/m 11.6 km/h (2 Bft) W-NW 7.1 C 14.0 C
14.09.2001 18:00 13.3 C 68 % 1001.6 hPa 0.0 l/m 1.9 km/h (1 Bft) W-NW 7.6 C 13.3 C
14.09.2001 19:00 12.0 C 77 % 1002.4 hPa 0.0 l/m 0.2 km/h (0 Bft) W-NW 8.1 C 12.0 C
14.09.2001 20:00 11.2 C 84 % 1003.1 hPa 0.0 l/m 0.4 km/h (0 Bft) O-SO 8.6 C 11.2 C
14.09.2001 21:00 10.7 C 86 % 1004.2 hPa 0.0 l/m 0.2 km/h (0 Bft) W-SW 8.4 C 10.7 C
14.09.2001 22:00 10.4 C 89 % 1004.7 hPa 0.0 l/m 0.0 km/h (0 Bft) N 8.6 C 10.4 C
14.09.2001 23:00 10.5 C 88 % 1004.9 hPa 0.0 l/m 0.0 km/h (0 Bft) N 8.6 C 10.5 C
15.09.2001 00:00 10.2 C 90 % 1005.7 hPa 0.0 l/m 0.0 km/h (0 Bft) N 8.6 C 10.2 C
15.09.2001 01:00 10.2 C 89 % 1005.7 hPa 0.0 l/m 0.1 km/h (0 Bft) N 8.6 C 10.2 C
15.09.2001 02:00 9.5 C 91 % 1006.2 hPa 0.0 l/m 0.0 km/h (0 Bft) N 8.0 C 9.5 C
15.09.2001 03:00 9.9 C 91 % 1006.2 hPa 0.0 l/m 0.1 km/h (0 Bft) N 8.5 C 9.9 C
15.09.2001 04:00 9.8 C 91 % 1006.0 hPa 0.0 l/m 0.2 km/h (0 Bft) O-SO 8.4 C 9.8 C
15.09.2001 05:00 9.5 C 90 % 1005.7 hPa 0.0 l/m 1.5 km/h (1 Bft) SO 8.0 C 9.5 C
15.09.2001 06:00 8.4 C 92 % 1006.1 hPa 0.3 l/m 1.2 km/h (1 Bft) O-SO 7.3 C 8.3 C
15.09.2001 07:00 8.5 C 94 % 1006.7 hPa 0.0 l/m 1.0 km/h (0 Bft) O-SO 7.6 C 8.5 C
15.09.2001 08:00 9.8 C 91 % 1007.5 hPa 0.0 l/m 0.9 km/h (0 Bft) SO 8.4 C 9.8 C
15.09.2001 09:00 10.8 C 86 % 1007.8 hPa 0.0 l/m 1.1 km/h (1 Bft) SO 8.5 C 10.8 C
15.09.2001 10:00 12.5 C 75 % 1007.8 hPa 0.0 l/m 4.9 km/h (1 Bft) W-NW 8.2 C 12.5 C
15.09.2001 11:00 13.7 C 66 % 1007.8 hPa 0.0 l/m 14.6 km/h (3 Bft) W-NW 7.5 C 13.7 C
15.09.2001 12:00 14.5 C 63 % 1007.0 hPa 0.0 l/m 17.7 km/h (3 Bft) W-NW 7.4 C 14.5 C
15.09.2001 13:00 14.9 C 60 % 1006.7 hPa 0.0 l/m 18.6 km/h (3 Bft) W-NW 7.1 C 14.9 C
15.09.2001 14:00 15.4 C 57 % 1006.7 hPa 0.0 l/m 19.5 km/h (3 Bft) W-NW 7.0 C 15.4 C
15.09.2001 15:00 15.6 C 58 % 1006.1 hPa 0.0 l/m 14.0 km/h (3 Bft) W-NW 7.2 C 15.6 C
15.09.2001 16:00 16.4 C 54 % 1005.7 hPa 0.0 l/m 13.7 km/h (3 Bft) W-NW 7.1 C 16.4 C
15.09.2001 17:00 16.1 C 54 % 1005.7 hPa 0.0 l/m 17.6 km/h (3 Bft) W-NW 6.8 C 16.1 C
15.09.2001 18:00 14.8 C 61 % 1005.7 hPa 0.0 l/m 16.1 km/h (3 Bft) W-NW 7.3 C 14.8 C
15.09.2001 19:00 14.1 C 63 % 1006.0 hPa 0.0 l/m 15.7 km/h (3 Bft) W-NW 7.1 C 14.1 C
15.09.2001 20:00 13.6 C 64 % 1006.2 hPa 0.0 l/m 21.8 km/h (4 Bft) W-NW 6.9 C 13.6 C
15.09.2001 21:00 13.3 C 65 % 1006.7 hPa 0.0 l/m 13.0 km/h (3 Bft) W-NW 6.8 C 13.3 C
15.09.2001 22:00 13.1 C 66 % 1006.4 hPa 0.0 l/m 12.3 km/h (3 Bft) W-NW 6.9 C 13.1 C
15.09.2001 23:00 12.7 C 69 % 1005.9 hPa 0.0 l/m 5.4 km/h (1 Bft) W 7.1 C 12.7 C
16.09.2001 00:00 12.3 C 72 % 1005.7 hPa 0.0 l/m 2.3 km/h (1 Bft) O-SO 7.3 C 12.3 C
16.09.2001 01:00 11.6 C 78 % 1005.5 hPa 0.0 l/m 6.4 km/h (2 Bft) W-NW 7.8 C 11.6 C
16.09.2001 02:00 12.5 C 73 % 1005.5 hPa 0.0 l/m 23.5 km/h (4 Bft) W-NW 7.8 C 12.5 C
16.09.2001 03:00 11.9 C 78 % 1004.7 hPa 0.0 l/m 24.6 km/h (4 Bft) W-NW 8.1 C 11.9 C
16.09.2001 04:00 11.6 C 76 % 1004.1 hPa 0.0 l/m 18.1 km/h (3 Bft) W-NW 7.4 C 11.6 C
16.09.2001 05:00 11.4 C 76 % 1003.6 hPa 0.0 l/m 14.2 km/h (3 Bft) W-NW 7.3 C 11.4 C
16.09.2001 06:00 11.1 C 76 % 1003.6 hPa 0.0 l/m 23.7 km/h (4 Bft) W-NW 7.0 C 11.1 C
16.09.2001 07:00 10.3 C 79 % 1003.6 hPa 0.0 l/m 23.9 km/h (4 Bft) W-NW 6.7 C 10.3 C
16.09.2001 08:00 10.6 C 75 % 1003.6 hPa 0.0 l/m 29.7 km/h (5 Bft) W-NW 6.2 C 10.6 C
16.09.2001 09:00 10.6 C 73 % 1004.0 hPa 0.0 l/m 30.6 km/h (5 Bft) W-NW 5.9 C 10.2 C
16.09.2001 10:00 10.8 C 74 % 1004.7 hPa 0.0 l/m 25.2 km/h (4 Bft) W-NW 6.3 C 9.9 C
16.09.2001 11:00 10.2 C 79 % 1004.7 hPa 0.0 l/m 9.0 km/h (2 Bft) W-NW 6.6 C 9.6 C
16.09.2001 12:00 9.7 C 78 % 1004.7 hPa 0.3 l/m 9.1 km/h (2 Bft) W-NW 6.0 C 8.6 C
16.09.2001 13:00 10.4 C 79 % 1004.7 hPa 0.9 l/m 13.5 km/h (3 Bft) W-NW 7.0 C 10.1 C
16.09.2001 14:00 11.3 C 76 % 1004.7 hPa 0.6 l/m 12.7 km/h (3 Bft) W-NW 7.2 C 11.3 C
16.09.2001 15:00 10.8 C 80 % 1005.0 hPa 0.6 l/m 13.6 km/h (3 Bft) NW 7.5 C 10.6 C
16.09.2001 16:00 11.5 C 74 % 1005.1 hPa 0.0 l/m 11.4 km/h (2 Bft) W-NW 7.0 C 11.5 C
16.09.2001 17:00 9.7 C 80 % 1005.6 hPa 1.3 l/m 8.9 km/h (2 Bft) W-NW 6.4 C 9.2 C
16.09.2001 18:00 9.3 C 88 % 1005.7 hPa 0.0 l/m 2.4 km/h (1 Bft) O-SO 7.3 C 9.0 C
16.09.2001 19:00 8.5 C 89 % 1006.0 hPa 0.0 l/m 3.1 km/h (1 Bft) O-SO 6.8 C 8.2 C
16.09.2001 20:00 8.1 C 91 % 1006.0 hPa 0.0 l/m 4.4 km/h (1 Bft) O-SO 6.8 C 7.6 C
16.09.2001 21:00 8.4 C 92 % 1006.1 hPa 2.2 l/m 0.4 km/h (0 Bft) N 7.2 C 8.4 C
16.09.2001 22:00 7.9 C 94 % 1006.7 hPa 5.9 l/m 1.1 km/h (1 Bft) W-NW 6.9 C 7.7 C
16.09.2001 23:00 7.3 C 95 % 1006.5 hPa 2.2 l/m 0.2 km/h (0 Bft) SO 6.5 C 7.3 C
Min-Datum _ 10.09.01 11.09.01 14.09.01 - 10.09.01 - 11.09.01 10.09.01
_ Min-Zeit 01:18 16:05 01:50 - 00:30 - 16:17 01:55
Minimum _ 5.7 C 42 % 995.3 hPa - 0.0 km/h (0 Bft) - 1.6 C 3.8 C
Max-Datum _ 13.09.01 13.09.01 12.09.01 16.09.01 16.09.01 - 13.09.01 13.09.01
_ Max-Zeit 16:28 04:34 11:03 21:00 09:22 - 23:46 16:28
Maximum _ 19.4 C 96 % 1011.9 hPa 5.9 l/m 59.5 km/h
W-NW (7 Bft)
- 11.6 C 19.4 C
Durchschnitt _ 11.2 C 78 % 1006.2 hPa #31.0 l/m 8.4 km/h (2 Bft) W-NW 7.4 C 11.1 C

Durchschnitt Minimum Temp.10.6 C
Durchschnitt Maximum Temp.11.9 C
© Kaiko 2001